New Castle, Kentucky
Current Conditions -  °F | °C
As of 8:53 AM on Saturday 22 Nov 2014 (Local Time) from KFFT Reporting Station
Broken Clouds Broken Clouds  
Wind Chill: 42°   Ceiling: 10000
Heat Index: 45°   Visibility: 10mi
Dew Point: 30°   Wind: 6mph
Humidity: 56%   Direction: 180°S
Pressure: 30.3"   Gusts: NA
Location:  38.43°N, 85.17°W
Report Text: KFFT 221353Z AUTO 18005KT 10SM SCT070 BKN100 07/M01 A3030 RMK AO2 SLP265 T00721011
Loading
Personal Weather Stations






























Interactive Weather Map New forecast layout! Learn more

10-Day Weather Forecast

Advertisements
Track Severe Weather on mobile